sensor_id;sensor_type;location;lat;lon;timestamp;temperature;humidity
18153;DHT22;9202;51.578;7.734;2023-05-21T00:01:50;13.40;99.90
18153;DHT22;9202;51.578;7.734;2023-05-21T00:03:53;13.40;99.90
18153;DHT22;9202;51.578;7.734;2023-05-21T00:05:56;13.30;99.90
18153;DHT22;9202;51.578;7.734;2023-05-21T00:07:59;13.40;99.90
18153;DHT22;9202;51.578;7.734;2023-05-21T00:10:01;13.40;99.90
18153;DHT22;9202;51.578;7.734;2023-05-21T00:12:05;13.40;99.90
18153;DHT22;9202;51.578;7.734;2023-05-21T00:14:08;13.40;99.90
18153;DHT22;9202;51.578;7.734;2023-05-21T00:16:10;13.40;99.90
18153;DHT22;9202;51.578;7.734;2023-05-21T00:18:13;13.40;99.90
18153;DHT22;9202;51.578;7.734;2023-05-21T00:20:15;13.40;99.90
18153;DHT22;9202;51.578;7.734;2023-05-21T00:22:18;13.50;99.90
18153;DHT22;9202;51.578;7.734;2023-05-21T00:24:21;13.50;99.90
18153;DHT22;9202;51.578;7.734;2023-05-21T00:26:25;13.50;99.90
18153;DHT22;9202;51.578;7.734;2023-05-21T00:28:28;13.50;99.90
18153;DHT22;9202;51.578;7.734;2023-05-21T00:30:31;13.50;99.90
18153;DHT22;9202;51.578;7.734;2023-05-21T00:32:34;13.40;99.90
18153;DHT22;9202;51.578;7.734;2023-05-21T00:34:37;13.50;99.90
18153;DHT22;9202;51.578;7.734;2023-05-21T00:36:40;13.30;99.90
18153;DHT22;9202;51.578;7.734;2023-05-21T00:38:44;13.30;99.90
18153;DHT22;9202;51.578;7.734;2023-05-21T00:40:48;13.40;99.90
18153;DHT22;9202;51.578;7.734;2023-05-21T00:42:52;13.40;99.90
18153;DHT22;9202;51.578;7.734;2023-05-21T00:44:56;13.30;99.90
18153;DHT22;9202;51.578;7.734;2023-05-21T00:46:59;13.30;99.90
18153;DHT22;9202;51.578;7.734;2023-05-21T00:49:03;13.20;99.90
18153;DHT22;9202;51.578;7.734;2023-05-21T00:51:05;13.20;99.90
18153;DHT22;9202;51.578;7.734;2023-05-21T00:53:08;13.20;99.90
18153;DHT22;9202;51.578;7.734;2023-05-21T00:55:11;13.10;99.90
18153;DHT22;9202;51.578;7.734;2023-05-21T00:57:13;13.00;99.90
18153;DHT22;9202;51.578;7.734;2023-05-21T00:59:17;12.90;99.90
18153;DHT22;9202;51.578;7.734;2023-05-21T01:01:19;12.90;99.90
18153;DHT22;9202;51.578;7.734;2023-05-21T01:03:22;12.90;99.90
18153;DHT22;9202;51.578;7.734;2023-05-21T01:05:25;12.90;99.90
18153;DHT22;9202;51.578;7.734;2023-05-21T01:07:28;12.90;99.90
18153;DHT22;9202;51.578;7.734;2023-05-21T01:09:31;12.80;99.90
18153;DHT22;9202;51.578;7.734;2023-05-21T01:11:36;12.70;99.90
18153;DHT22;9202;51.578;7.734;2023-05-21T01:13:40;12.80;99.90
18153;DHT22;9202;51.578;7.734;2023-05-21T01:15:43;12.80;99.90
18153;DHT22;9202;51.578;7.734;2023-05-21T01:17:46;12.70;99.90
18153;DHT22;9202;51.578;7.734;2023-05-21T01:19:49;12.80;99.90
18153;DHT22;9202;51.578;7.734;2023-05-21T01:21:55;12.70;99.90
18153;DHT22;9202;51.578;7.734;2023-05-21T01:23:59;12.70;99.90
18153;DHT22;9202;51.578;7.734;2023-05-21T01:26:03;12.60;99.90
18153;DHT22;9202;51.578;7.734;2023-05-21T01:28:05;12.70;99.90
18153;DHT22;9202;51.578;7.734;2023-05-21T01:30:09;12.70;99.90
18153;DHT22;9202;51.578;7.734;2023-05-21T01:32:13;12.70;99.90
18153;DHT22;9202;51.578;7.734;2023-05-21T01:34:16;12.60;99.90
18153;DHT22;9202;51.578;7.734;2023-05-21T01:36:22;12.60;99.90
18153;DHT22;9202;51.578;7.734;2023-05-21T01:38:28;12.70;99.90
18153;DHT22;9202;51.578;7.734;2023-05-21T01:40:33;12.60;99.90
18153;DHT22;9202;51.578;7.734;2023-05-21T01:42:36;12.60;99.90
18153;DHT22;9202;51.578;7.734;2023-05-21T01:44:40;12.60;99.90
18153;DHT22;9202;51.578;7.734;2023-05-21T01:46:43;12.70;99.90
18153;DHT22;9202;51.578;7.734;2023-05-21T01:48:46;12.60;99.90
18153;DHT22;9202;51.578;7.734;2023-05-21T01:50:50;12.60;99.90
18153;DHT22;9202;51.578;7.734;2023-05-21T01:52:56;12.50;99.90
18153;DHT22;9202;51.578;7.734;2023-05-21T01:54:59;12.40;99.90
18153;DHT22;9202;51.578;7.734;2023-05-21T01:57:01;12.40;99.90
18153;DHT22;9202;51.578;7.734;2023-05-21T01:59:04;12.30;99.90
18153;DHT22;9202;51.578;7.734;2023-05-21T02:01:07;12.40;99.90
18153;DHT22;9202;51.578;7.734;2023-05-21T02:03:10;12.40;99.90
18153;DHT22;9202;51.578;7.734;2023-05-21T02:05:13;12.30;99.90
18153;DHT22;9202;51.578;7.734;2023-05-21T02:07:16;12.40;99.90
18153;DHT22;9202;51.578;7.734;2023-05-21T02:09:19;12.50;99.90
18153;DHT22;9202;51.578;7.734;2023-05-21T02:11:22;12.50;99.90
18153;DHT22;9202;51.578;7.734;2023-05-21T02:13:24;12.40;99.90
18153;DHT22;9202;51.578;7.734;2023-05-21T02:15:28;12.40;99.90
18153;DHT22;9202;51.578;7.734;2023-05-21T02:17:31;12.30;99.90
18153;DHT22;9202;51.578;7.734;2023-05-21T02:19:35;12.30;99.90
18153;DHT22;9202;51.578;7.734;2023-05-21T02:21:38;12.30;99.90
18153;DHT22;9202;51.578;7.734;2023-05-21T02:23:41;12.30;99.90
18153;DHT22;9202;51.578;7.734;2023-05-21T02:25:44;12.20;99.90
18153;DHT22;9202;51.578;7.734;2023-05-21T02:27:47;12.20;99.90
18153;DHT22;9202;51.578;7.734;2023-05-21T02:29:51;12.10;99.90
18153;DHT22;9202;51.578;7.734;2023-05-21T02:31:54;12.10;99.90
18153;DHT22;9202;51.578;7.734;2023-05-21T02:33:56;12.10;99.90
18153;DHT22;9202;51.578;7.734;2023-05-21T02:35:59;12.00;99.90
18153;DHT22;9202;51.578;7.734;2023-05-21T02:38:02;12.00;99.90
18153;DHT22;9202;51.578;7.734;2023-05-21T02:40:06;12.00;99.90
18153;DHT22;9202;51.578;7.734;2023-05-21T02:42:10;11.90;99.90
18153;DHT22;9202;51.578;7.734;2023-05-21T02:44:13;11.90;99.90
18153;DHT22;9202;51.578;7.734;2023-05-21T02:46:17;11.90;99.90
18153;DHT22;9202;51.578;7.734;2023-05-21T02:48:19;11.90;99.90
18153;DHT22;9202;51.578;7.734;2023-05-21T02:50:22;12.00;99.90
18153;DHT22;9202;51.578;7.734;2023-05-21T02:52:26;11.90;99.90
18153;DHT22;9202;51.578;7.734;2023-05-21T02:54:29;11.90;99.90
18153;DHT22;9202;51.578;7.734;2023-05-21T02:56:32;12.00;99.90
18153;DHT22;9202;51.578;7.734;2023-05-21T02:58:36;11.90;99.90
18153;DHT22;9202;51.578;7.734;2023-05-21T03:00:38;12.00;99.90
18153;DHT22;9202;51.578;7.734;2023-05-21T03:02:41;12.00;99.90
18153;DHT22;9202;51.578;7.734;2023-05-21T03:04:44;11.90;99.90
18153;DHT22;9202;51.578;7.734;2023-05-21T03:06:47;11.90;99.90
18153;DHT22;9202;51.578;7.734;2023-05-21T03:11:07;11.80;99.90
18153;DHT22;9202;51.578;7.734;2023-05-21T03:13:10;11.80;99.90
18153;DHT22;9202;51.578;7.734;2023-05-21T03:15:13;11.80;99.90
18153;DHT22;9202;51.578;7.734;2023-05-21T03:17:16;11.80;99.90
18153;DHT22;9202;51.578;7.734;2023-05-21T03:19:18;11.80;99.90
18153;DHT22;9202;51.578;7.734;2023-05-21T03:21:22;11.70;99.90
18153;DHT22;9202;51.578;7.734;2023-05-21T03:23:25;11.70;99.90
18153;DHT22;9202;51.578;7.734;2023-05-21T03:25:28;11.70;99.90
18153;DHT22;9202;51.578;7.734;2023-05-21T03:27:31;11.70;99.90
18153;DHT22;9202;51.578;7.734;2023-05-21T03:29:34;11.60;99.90
18153;DHT22;9202;51.578;7.734;2023-05-21T03:31:37;11.70;99.90
18153;DHT22;9202;51.578;7.734;2023-05-21T03:33:42;11.70;99.90
18153;DHT22;9202;51.578;7.734;2023-05-21T03:35:46;11.70;99.90
18153;DHT22;9202;51.578;7.734;2023-05-21T03:37:49;11.70;99.90
18153;DHT22;9202;51.578;7.734;2023-05-21T03:39:52;11.60;99.90
18153;DHT22;9202;51.578;7.734;2023-05-21T03:41:54;11.70;99.90
18153;DHT22;9202;51.578;7.734;2023-05-21T03:43:59;11.60;99.90
18153;DHT22;9202;51.578;7.734;2023-05-21T03:46:03;11.60;99.90
18153;DHT22;9202;51.578;7.734;2023-05-21T03:48:08;11.30;99.90
18153;DHT22;9202;51.578;7.734;2023-05-21T03:50:11;11.60;99.90
18153;DHT22;9202;51.578;7.734;2023-05-21T03:52:13;11.50;99.90
18153;DHT22;9202;51.578;7.734;2023-05-21T03:54:19;11.60;99.90
18153;DHT22;9202;51.578;7.734;2023-05-21T03:56:22;11.60;99.90
18153;DHT22;9202;51.578;7.734;2023-05-21T03:58:25;11.50;99.90
18153;DHT22;9202;51.578;7.734;2023-05-21T04:00:29;11.50;99.90
18153;DHT22;9202;51.578;7.734;2023-05-21T04:02:33;11.60;99.90
18153;DHT22;9202;51.578;7.734;2023-05-21T04:04:36;11.60;99.90
18153;DHT22;9202;51.578;7.734;2023-05-21T04:06:39;11.70;99.90
18153;DHT22;9202;51.578;7.734;2023-05-21T04:08:43;11.70;99.90
18153;DHT22;9202;51.578;7.734;2023-05-21T04:10:46;11.80;99.90
18153;DHT22;9202;51.578;7.734;2023-05-21T04:12:50;11.70;99.90
18153;DHT22;9202;51.578;7.734;2023-05-21T04:14:53;11.80;99.90
18153;DHT22;9202;51.578;7.734;2023-05-21T04:16:55;11.80;99.90
18153;DHT22;9202;51.578;7.734;2023-05-21T04:18:58;11.80;99.90
18153;DHT22;9202;51.578;7.734;2023-05-21T04:21:01;11.80;99.90
18153;DHT22;9202;51.578;7.734;2023-05-21T04:23:04;11.90;99.90
18153;DHT22;9202;51.578;7.734;2023-05-21T04:25:07;11.90;99.90
18153;DHT22;9202;51.578;7.734;2023-05-21T04:27:11;11.90;99.90
18153;DHT22;9202;51.578;7.734;2023-05-21T04:29:14;11.90;99.90
18153;DHT22;9202;51.578;7.734;2023-05-21T04:31:19;11.90;99.90
18153;DHT22;9202;51.578;7.734;2023-05-21T04:33:22;11.90;99.90
18153;DHT22;9202;51.578;7.734;2023-05-21T04:35:25;11.90;99.90
18153;DHT22;9202;51.578;7.734;2023-05-21T04:37:28;11.90;99.90
18153;DHT22;9202;51.578;7.734;2023-05-21T04:39:32;11.90;99.90
18153;DHT22;9202;51.578;7.734;2023-05-21T04:41:35;11.90;99.90
18153;DHT22;9202;51.578;7.734;2023-05-21T04:43:39;12.00;99.90
18153;DHT22;9202;51.578;7.734;2023-05-21T04:45:44;11.90;99.90
18153;DHT22;9202;51.578;7.734;2023-05-21T04:47:47;11.40;99.90
18153;DHT22;9202;51.578;7.734;2023-05-21T04:49:49;12.00;99.90
18153;DHT22;9202;51.578;7.734;2023-05-21T04:51:52;12.00;99.90
18153;DHT22;9202;51.578;7.734;2023-05-21T04:53:55;12.10;99.90
18153;DHT22;9202;51.578;7.734;2023-05-21T04:55:59;12.00;99.90
18153;DHT22;9202;51.578;7.734;2023-05-21T04:58:01;12.10;99.90
18153;DHT22;9202;51.578;7.734;2023-05-21T05:00:07;12.20;99.90
18153;DHT22;9202;51.578;7.734;2023-05-21T05:02:12;12.30;99.90
18153;DHT22;9202;51.578;7.734;2023-05-21T05:04:15;12.30;99.90
18153;DHT22;9202;51.578;7.734;2023-05-21T05:06:18;12.40;99.90
18153;DHT22;9202;51.578;7.734;2023-05-21T05:08:22;12.40;99.90
18153;DHT22;9202;51.578;7.734;2023-05-21T05:10:25;12.30;99.90
18153;DHT22;9202;51.578;7.734;2023-05-21T05:12:29;12.30;99.90
18153;DHT22;9202;51.578;7.734;2023-05-21T05:14:32;12.60;99.90
18153;DHT22;9202;51.578;7.734;2023-05-21T05:16:34;12.50;99.90
18153;DHT22;9202;51.578;7.734;2023-05-21T05:18:37;12.60;99.90
18153;DHT22;9202;51.578;7.734;2023-05-21T05:20:40;12.60;99.90
18153;DHT22;9202;51.578;7.734;2023-05-21T05:22:42;12.60;99.90
18153;DHT22;9202;51.578;7.734;2023-05-21T05:24:47;12.60;99.90
18153;DHT22;9202;51.578;7.734;2023-05-21T05:26:50;12.60;99.90
18153;DHT22;9202;51.578;7.734;2023-05-21T05:28:53;12.70;99.90
18153;DHT22;9202;51.578;7.734;2023-05-21T05:30:55;12.80;99.90
18153;DHT22;9202;51.578;7.734;2023-05-21T05:32:59;12.80;99.90
18153;DHT22;9202;51.578;7.734;2023-05-21T05:35:02;12.90;99.90
18153;DHT22;9202;51.578;7.734;2023-05-21T05:37:04;13.00;99.90
18153;DHT22;9202;51.578;7.734;2023-05-21T05:39:07;13.00;99.90
18153;DHT22;9202;51.578;7.734;2023-05-21T05:41:11;13.10;99.90
18153;DHT22;9202;51.578;7.734;2023-05-21T05:43:13;13.10;99.90
18153;DHT22;9202;51.578;7.734;2023-05-21T05:45:16;13.10;99.90
18153;DHT22;9202;51.578;7.734;2023-05-21T05:47:19;13.20;99.90
18153;DHT22;9202;51.578;7.734;2023-05-21T05:49:22;13.20;99.90
18153;DHT22;9202;51.578;7.734;2023-05-21T05:51:25;13.40;99.90
18153;DHT22;9202;51.578;7.734;2023-05-21T05:53:28;13.40;99.90
18153;DHT22;9202;51.578;7.734;2023-05-21T05:55:31;13.40;99.90
18153;DHT22;9202;51.578;7.734;2023-05-21T05:57:34;13.50;99.90
18153;DHT22;9202;51.578;7.734;2023-05-21T05:59:38;13.50;99.90
18153;DHT22;9202;51.578;7.734;2023-05-21T06:01:41;13.50;99.90
18153;DHT22;9202;51.578;7.734;2023-05-21T06:03:44;13.50;99.90
18153;DHT22;9202;51.578;7.734;2023-05-21T06:05:49;13.50;99.90
18153;DHT22;9202;51.578;7.734;2023-05-21T06:07:52;13.70;99.90
18153;DHT22;9202;51.578;7.734;2023-05-21T06:09:55;13.70;99.90
18153;DHT22;9202;51.578;7.734;2023-05-21T06:11:57;13.70;99.90
18153;DHT22;9202;51.578;7.734;2023-05-21T06:14:00;13.80;99.90
18153;DHT22;9202;51.578;7.734;2023-05-21T06:16:03;13.80;99.90
18153;DHT22;9202;51.578;7.734;2023-05-21T06:18:06;13.80;99.90
18153;DHT22;9202;51.578;7.734;2023-05-21T06:20:09;13.80;99.90
18153;DHT22;9202;51.578;7.734;2023-05-21T06:22:13;13.90;99.90
18153;DHT22;9202;51.578;7.734;2023-05-21T06:24:16;14.00;99.90
18153;DHT22;9202;51.578;7.734;2023-05-21T06:26:19;14.00;99.90
18153;DHT22;9202;51.578;7.734;2023-05-21T06:28:23;14.00;99.90
18153;DHT22;9202;51.578;7.734;2023-05-21T06:30:26;14.00;99.90
18153;DHT22;9202;51.578;7.734;2023-05-21T06:32:29;14.00;99.90
18153;DHT22;9202;51.578;7.734;2023-05-21T06:34:32;14.00;99.90
18153;DHT22;9202;51.578;7.734;2023-05-21T06:36:34;14.20;99.90
18153;DHT22;9202;51.578;7.734;2023-05-21T06:38:37;14.20;99.90
18153;DHT22;9202;51.578;7.734;2023-05-21T06:40:41;14.20;99.90
18153;DHT22;9202;51.578;7.734;2023-05-21T06:42:46;14.20;99.90
18153;DHT22;9202;51.578;7.734;2023-05-21T06:44:51;14.20;99.90
18153;DHT22;9202;51.578;7.734;2023-05-21T06:46:55;14.30;99.90
18153;DHT22;9202;51.578;7.734;2023-05-21T06:48:58;14.30;99.90
18153;DHT22;9202;51.578;7.734;2023-05-21T06:51:02;14.30;99.90
18153;DHT22;9202;51.578;7.734;2023-05-21T06:53:04;14.40;99.90
18153;DHT22;9202;51.578;7.734;2023-05-21T06:55:07;14.30;99.90
18153;DHT22;9202;51.578;7.734;2023-05-21T06:57:13;14.30;99.90
18153;DHT22;9202;51.578;7.734;2023-05-21T06:59:16;14.40;99.90
18153;DHT22;9202;51.578;7.734;2023-05-21T07:01:19;14.50;99.90
18153;DHT22;9202;51.578;7.734;2023-05-21T07:03:23;14.50;99.90
18153;DHT22;9202;51.578;7.734;2023-05-21T07:05:26;14.60;99.90
18153;DHT22;9202;51.578;7.734;2023-05-21T07:07:29;14.70;99.90
18153;DHT22;9202;51.578;7.734;2023-05-21T07:09:34;14.70;99.90
18153;DHT22;9202;51.578;7.734;2023-05-21T07:11:37;14.80;99.90
18153;DHT22;9202;51.578;7.734;2023-05-21T07:13:41;14.80;99.90
18153;DHT22;9202;51.578;7.734;2023-05-21T07:15:45;14.70;99.90
18153;DHT22;9202;51.578;7.734;2023-05-21T07:17:49;14.70;99.90
18153;DHT22;9202;51.578;7.734;2023-05-21T07:19:52;14.80;99.90
18153;DHT22;9202;51.578;7.734;2023-05-21T07:21:56;14.90;99.90
18153;DHT22;9202;51.578;7.734;2023-05-21T07:24:00;15.00;99.90
18153;DHT22;9202;51.578;7.734;2023-05-21T07:26:04;15.00;99.90
18153;DHT22;9202;51.578;7.734;2023-05-21T07:28:08;15.10;99.90
18153;DHT22;9202;51.578;7.734;2023-05-21T07:30:12;15.20;99.90
18153;DHT22;9202;51.578;7.734;2023-05-21T07:32:16;15.30;99.90
18153;DHT22;9202;51.578;7.734;2023-05-21T07:36:36;15.50;99.90
18153;DHT22;9202;51.578;7.734;2023-05-21T07:38:39;15.60;99.90
18153;DHT22;9202;51.578;7.734;2023-05-21T07:40:45;15.40;99.90
18153;DHT22;9202;51.578;7.734;2023-05-21T07:42:49;15.50;99.90
18153;DHT22;9202;51.578;7.734;2023-05-21T07:44:54;15.50;99.90
18153;DHT22;9202;51.578;7.734;2023-05-21T07:46:57;15.50;99.90
18153;DHT22;9202;51.578;7.734;2023-05-21T07:49:00;15.60;99.90
18153;DHT22;9202;51.578;7.734;2023-05-21T07:51:04;15.70;99.90
18153;DHT22;9202;51.578;7.734;2023-05-21T07:53:08;15.70;99.90
18153;DHT22;9202;51.578;7.734;2023-05-21T07:55:11;15.80;99.90
18153;DHT22;9202;51.578;7.734;2023-05-21T07:57:14;15.80;99.90
18153;DHT22;9202;51.578;7.734;2023-05-21T07:59:18;15.90;99.90
18153;DHT22;9202;51.578;7.734;2023-05-21T08:01:21;15.90;99.90
18153;DHT22;9202;51.578;7.734;2023-05-21T08:03:25;15.90;99.90
18153;DHT22;9202;51.578;7.734;2023-05-21T08:05:32;15.90;99.90
18153;DHT22;9202;51.578;7.734;2023-05-21T08:07:35;15.70;99.90
18153;DHT22;9202;51.578;7.734;2023-05-21T08:09:38;15.90;99.90
18153;DHT22;9202;51.578;7.734;2023-05-21T08:11:42;15.80;99.90
18153;DHT22;9202;51.578;7.734;2023-05-21T08:13:46;15.80;99.90
18153;DHT22;9202;51.578;7.734;2023-05-21T08:15:50;16.00;99.90
18153;DHT22;9202;51.578;7.734;2023-05-21T08:17:55;16.00;99.90
18153;DHT22;9202;51.578;7.734;2023-05-21T08:19:59;16.20;99.90
18153;DHT22;9202;51.578;7.734;2023-05-21T08:22:04;16.30;99.90
18153;DHT22;9202;51.578;7.734;2023-05-21T08:24:10;16.40;99.90
18153;DHT22;9202;51.578;7.734;2023-05-21T08:26:13;16.60;99.90
18153;DHT22;9202;51.578;7.734;2023-05-21T08:28:17;16.50;99.90
18153;DHT22;9202;51.578;7.734;2023-05-21T08:30:20;16.70;99.90
18153;DHT22;9202;51.578;7.734;2023-05-21T08:32:24;16.80;99.90
18153;DHT22;9202;51.578;7.734;2023-05-21T08:34:28;16.90;99.90
18153;DHT22;9202;51.578;7.734;2023-05-21T08:36:32;17.10;99.90
18153;DHT22;9202;51.578;7.734;2023-05-21T08:38:37;17.10;99.90
18153;DHT22;9202;51.578;7.734;2023-05-21T08:40:41;17.30;99.90
18153;DHT22;9202;51.578;7.734;2023-05-21T08:42:45;17.50;99.90
18153;DHT22;9202;51.578;7.734;2023-05-21T08:44:53;17.70;99.90
18153;DHT22;9202;51.578;7.734;2023-05-21T08:47:10;17.90;99.90
18153;DHT22;9202;51.578;7.734;2023-05-21T08:49:20;18.00;99.90
18153;DHT22;9202;51.578;7.734;2023-05-21T08:51:28;18.30;99.90
18153;DHT22;9202;51.578;7.734;2023-05-21T08:53:32;18.40;99.90
18153;DHT22;9202;51.578;7.734;2023-05-21T08:55:35;18.50;99.90
18153;DHT22;9202;51.578;7.734;2023-05-21T08:57:41;18.60;99.90
18153;DHT22;9202;51.578;7.734;2023-05-21T08:59:44;18.60;99.90
18153;DHT22;9202;51.578;7.734;2023-05-21T09:01:49;18.70;99.90
18153;DHT22;9202;51.578;7.734;2023-05-21T09:04:02;18.70;99.90
18153;DHT22;9202;51.578;7.734;2023-05-21T09:06:24;18.80;99.90
18153;DHT22;9202;51.578;7.734;2023-05-21T09:08:29;18.90;99.90
18153;DHT22;9202;51.578;7.734;2023-05-21T09:10:35;18.90;99.90
18153;DHT22;9202;51.578;7.734;2023-05-21T09:12:38;19.00;99.90
18153;DHT22;9202;51.578;7.734;2023-05-21T09:14:41;19.10;99.90
18153;DHT22;9202;51.578;7.734;2023-05-21T09:16:46;19.20;99.90
18153;DHT22;9202;51.578;7.734;2023-05-21T09:21:22;19.40;99.90
18153;DHT22;9202;51.578;7.734;2023-05-21T09:23:25;19.40;99.90
18153;DHT22;9202;51.578;7.734;2023-05-21T09:25:29;19.20;99.90
18153;DHT22;9202;51.578;7.734;2023-05-21T09:27:34;19.00;99.90
18153;DHT22;9202;51.578;7.734;2023-05-21T09:29:37;19.30;99.90
18153;DHT22;9202;51.578;7.734;2023-05-21T09:31:42;19.20;99.90
18153;DHT22;9202;51.578;7.734;2023-05-21T09:33:47;19.30;99.90
18153;DHT22;9202;51.578;7.734;2023-05-21T09:35:50;19.20;99.90
18153;DHT22;9202;51.578;7.734;2023-05-21T09:37:53;19.20;99.90
18153;DHT22;9202;51.578;7.734;2023-05-21T09:39:58;19.20;99.90
18153;DHT22;9202;51.578;7.734;2023-05-21T09:42:00;19.10;99.90
18153;DHT22;9202;51.578;7.734;2023-05-21T09:44:04;19.10;99.90
18153;DHT22;9202;51.578;7.734;2023-05-21T09:46:09;19.10;99.90
18153;DHT22;9202;51.578;7.734;2023-05-21T09:48:12;19.00;99.90
18153;DHT22;9202;51.578;7.734;2023-05-21T09:50:19;18.90;99.90
18153;DHT22;9202;51.578;7.734;2023-05-21T09:52:22;19.20;99.90
18153;DHT22;9202;51.578;7.734;2023-05-21T09:54:30;19.30;99.90
18153;DHT22;9202;51.578;7.734;2023-05-21T09:56:33;19.30;99.90
18153;DHT22;9202;51.578;7.734;2023-05-21T09:58:36;19.40;99.90
18153;DHT22;9202;51.578;7.734;2023-05-21T10:00:46;19.30;99.90
18153;DHT22;9202;51.578;7.734;2023-05-21T10:02:52;19.50;99.90
18153;DHT22;9202;51.578;7.734;2023-05-21T10:04:55;19.80;99.90
18153;DHT22;9202;51.578;7.734;2023-05-21T10:06:58;19.90;99.90
18153;DHT22;9202;51.578;7.734;2023-05-21T10:09:02;20.00;99.90
18153;DHT22;9202;51.578;7.734;2023-05-21T10:11:06;19.90;99.90
18153;DHT22;9202;51.578;7.734;2023-05-21T10:13:10;19.60;99.90
18153;DHT22;9202;51.578;7.734;2023-05-21T10:15:14;19.70;99.90
18153;DHT22;9202;51.578;7.734;2023-05-21T10:17:17;20.10;99.90
18153;DHT22;9202;51.578;7.734;2023-05-21T10:19:20;20.40;99.90
18153;DHT22;9202;51.578;7.734;2023-05-21T10:21:24;20.70;99.90
18153;DHT22;9202;51.578;7.734;2023-05-21T10:23:27;20.70;99.90
18153;DHT22;9202;51.578;7.734;2023-05-21T10:25:30;20.80;99.90
18153;DHT22;9202;51.578;7.734;2023-05-21T10:27:39;20.90;99.90
18153;DHT22;9202;51.578;7.734;2023-05-21T10:29:45;20.80;99.90
18153;DHT22;9202;51.578;7.734;2023-05-21T10:31:48;20.20;99.90
18153;DHT22;9202;51.578;7.734;2023-05-21T10:33:53;20.30;99.90
18153;DHT22;9202;51.578;7.734;2023-05-21T10:35:57;20.00;99.90
18153;DHT22;9202;51.578;7.734;2023-05-21T10:37:59;19.80;99.90
18153;DHT22;9202;51.578;7.734;2023-05-21T10:40:05;20.00;99.90
18153;DHT22;9202;51.578;7.734;2023-05-21T10:42:11;19.80;99.90
18153;DHT22;9202;51.578;7.734;2023-05-21T10:44:15;20.00;99.90
18153;DHT22;9202;51.578;7.734;2023-05-21T10:46:24;20.10;99.90
18153;DHT22;9202;51.578;7.734;2023-05-21T10:48:30;20.00;99.90
18153;DHT22;9202;51.578;7.734;2023-05-21T10:53:06;20.10;99.90
18153;DHT22;9202;51.578;7.734;2023-05-21T10:55:12;20.00;99.90
18153;DHT22;9202;51.578;7.734;2023-05-21T10:57:19;20.10;99.90
18153;DHT22;9202;51.578;7.734;2023-05-21T10:59:26;20.00;99.90
18153;DHT22;9202;51.578;7.734;2023-05-21T11:01:30;20.10;99.90
18153;DHT22;9202;51.578;7.734;2023-05-21T11:03:34;19.90;99.90
18153;DHT22;9202;51.578;7.734;2023-05-21T11:05:39;20.30;99.90
18153;DHT22;9202;51.578;7.734;2023-05-21T11:07:52;20.50;99.90
18153;DHT22;9202;51.578;7.734;2023-05-21T11:10:15;20.80;99.90
18153;DHT22;9202;51.578;7.734;2023-05-21T11:12:19;20.50;99.90
18153;DHT22;9202;51.578;7.734;2023-05-21T11:14:27;20.20;99.90
18153;DHT22;9202;51.578;7.734;2023-05-21T11:16:29;20.20;99.90
18153;DHT22;9202;51.578;7.734;2023-05-21T11:20:55;20.10;99.90
18153;DHT22;9202;51.578;7.734;2023-05-21T11:22:58;20.20;99.90
18153;DHT22;9202;51.578;7.734;2023-05-21T11:27:29;20.20;99.90
18153;DHT22;9202;51.578;7.734;2023-05-21T11:29:39;20.40;99.90
18153;DHT22;9202;51.578;7.734;2023-05-21T11:31:44;20.60;99.90
18153;DHT22;9202;51.578;7.734;2023-05-21T11:33:47;20.70;99.90
18153;DHT22;9202;51.578;7.734;2023-05-21T11:35:57;20.70;99.90
18153;DHT22;9202;51.578;7.734;2023-05-21T11:38:00;20.70;99.90
18153;DHT22;9202;51.578;7.734;2023-05-21T11:42:28;20.70;99.90
18153;DHT22;9202;51.578;7.734;2023-05-21T11:44:40;20.50;99.90
18153;DHT22;9202;51.578;7.734;2023-05-21T11:46:44;20.40;99.90
18153;DHT22;9202;51.578;7.734;2023-05-21T11:48:47;20.40;99.90
18153;DHT22;9202;51.578;7.734;2023-05-21T11:50:51;20.50;99.90
18153;DHT22;9202;51.578;7.734;2023-05-21T11:52:54;20.50;99.90
18153;DHT22;9202;51.578;7.734;2023-05-21T11:54:56;20.60;99.90
18153;DHT22;9202;51.578;7.734;2023-05-21T11:57:01;20.30;99.90
18153;DHT22;9202;51.578;7.734;2023-05-21T11:59:04;20.50;99.90
18153;DHT22;9202;51.578;7.734;2023-05-21T12:01:07;20.70;99.90
18153;DHT22;9202;51.578;7.734;2023-05-21T12:03:12;20.80;99.90
18153;DHT22;9202;51.578;7.734;2023-05-21T12:05:16;20.90;99.90
18153;DHT22;9202;51.578;7.734;2023-05-21T12:07:21;21.10;99.90
18153;DHT22;9202;51.578;7.734;2023-05-21T12:09:28;21.00;99.90
18153;DHT22;9202;51.578;7.734;2023-05-21T12:11:32;21.10;99.90
18153;DHT22;9202;51.578;7.734;2023-05-21T12:13:37;21.30;99.90
18153;DHT22;9202;51.578;7.734;2023-05-21T12:15:39;21.30;99.90
18153;DHT22;9202;51.578;7.734;2023-05-21T12:17:42;21.50;99.90
18153;DHT22;9202;51.578;7.734;2023-05-21T12:19:45;21.70;99.90
18153;DHT22;9202;51.578;7.734;2023-05-21T12:21:48;21.90;99.90
18153;DHT22;9202;51.578;7.734;2023-05-21T12:23:51;22.10;99.90
18153;DHT22;9202;51.578;7.734;2023-05-21T12:25:54;22.60;99.90
18153;DHT22;9202;51.578;7.734;2023-05-21T12:27:57;22.70;99.90
18153;DHT22;9202;51.578;7.734;2023-05-21T12:30:04;22.80;99.90
18153;DHT22;9202;51.578;7.734;2023-05-21T12:32:09;22.60;99.90
18153;DHT22;9202;51.578;7.734;2023-05-21T12:34:13;22.50;99.90
18153;DHT22;9202;51.578;7.734;2023-05-21T12:36:20;22.50;99.90
18153;DHT22;9202;51.578;7.734;2023-05-21T12:38:24;22.50;99.90
18153;DHT22;9202;51.578;7.734;2023-05-21T12:40:33;22.50;99.90
18153;DHT22;9202;51.578;7.734;2023-05-21T12:42:38;22.80;99.90
18153;DHT22;9202;51.578;7.734;2023-05-21T12:44:43;22.70;99.90
18153;DHT22;9202;51.578;7.734;2023-05-21T12:46:46;23.00;99.90
18153;DHT22;9202;51.578;7.734;2023-05-21T12:48:48;22.90;99.90
18153;DHT22;9202;51.578;7.734;2023-05-21T12:50:52;22.70;99.90
18153;DHT22;9202;51.578;7.734;2023-05-21T12:52:54;22.80;99.90
18153;DHT22;9202;51.578;7.734;2023-05-21T12:54:57;23.00;99.90
18153;DHT22;9202;51.578;7.734;2023-05-21T12:57:07;23.50;99.90
18153;DHT22;9202;51.578;7.734;2023-05-21T12:59:12;23.80;99.90
18153;DHT22;9202;51.578;7.734;2023-05-21T13:01:15;24.00;99.90
18153;DHT22;9202;51.578;7.734;2023-05-21T13:03:18;23.70;99.90
18153;DHT22;9202;51.578;7.734;2023-05-21T13:05:23;23.40;99.90
18153;DHT22;9202;51.578;7.734;2023-05-21T13:07:30;23.70;99.90
18153;DHT22;9202;51.578;7.734;2023-05-21T13:09:34;23.50;99.90
18153;DHT22;9202;51.578;7.734;2023-05-21T13:11:38;23.70;99.90
18153;DHT22;9202;51.578;7.734;2023-05-21T13:13:42;24.10;99.90
18153;DHT22;9202;51.578;7.734;2023-05-21T13:15:47;24.30;99.90
18153;DHT22;9202;51.578;7.734;2023-05-21T13:17:52;24.50;99.90
18153;DHT22;9202;51.578;7.734;2023-05-21T13:20:04;24.20;99.90
18153;DHT22;9202;51.578;7.734;2023-05-21T13:22:11;24.40;99.90
18153;DHT22;9202;51.578;7.734;2023-05-21T13:24:15;24.20;99.90
18153;DHT22;9202;51.578;7.734;2023-05-21T13:26:19;24.30;99.90
18153;DHT22;9202;51.578;7.734;2023-05-21T13:30:40;24.40;99.90
18153;DHT22;9202;51.578;7.734;2023-05-21T13:32:45;24.50;99.90
18153;DHT22;9202;51.578;7.734;2023-05-21T13:34:49;24.40;99.90